sensor_id;sensor_type;location;lat;lon;timestamp;P1;durP1;ratioP1;P2;durP2;ratioP2
8482;SDS011;4278;42.668;23.312;2022-10-22T00:01:34;25.63;;;15.50;;
8482;SDS011;4278;42.668;23.312;2022-10-22T00:04:03;30.93;;;15.33;;
8482;SDS011;4278;42.668;23.312;2022-10-22T00:06:29;30.07;;;16.60;;
8482;SDS011;4278;42.668;23.312;2022-10-22T00:08:56;22.13;;;14.50;;
8482;SDS011;4278;42.668;23.312;2022-10-22T00:11:22;26.37;;;15.80;;
8482;SDS011;4278;42.668;23.312;2022-10-22T00:13:50;25.97;;;15.30;;
8482;SDS011;4278;42.668;23.312;2022-10-22T00:16:17;27.67;;;16.17;;
8482;SDS011;4278;42.668;23.312;2022-10-22T00:18:43;30.20;;;14.53;;
8482;SDS011;4278;42.668;23.312;2022-10-22T00:21:10;27.87;;;15.23;;
8482;SDS011;4278;42.668;23.312;2022-10-22T00:23:38;26.70;;;16.50;;
8482;SDS011;4278;42.668;23.312;2022-10-22T00:26:05;30.43;;;14.93;;
8482;SDS011;4278;42.668;23.312;2022-10-22T00:28:32;22.63;;;14.43;;
8482;SDS011;4278;42.668;23.312;2022-10-22T00:31:00;24.83;;;15.20;;
8482;SDS011;4278;42.668;23.312;2022-10-22T00:33:27;25.70;;;15.47;;
8482;SDS011;4278;42.668;23.312;2022-10-22T00:35:54;26.43;;;15.27;;
8482;SDS011;4278;42.668;23.312;2022-10-22T00:38:20;25.83;;;14.90;;
8482;SDS011;4278;42.668;23.312;2022-10-22T00:40:47;29.50;;;14.90;;
8482;SDS011;4278;42.668;23.312;2022-10-22T00:43:15;30.50;;;15.07;;
8482;SDS011;4278;42.668;23.312;2022-10-22T00:45:42;21.93;;;14.13;;
8482;SDS011;4278;42.668;23.312;2022-10-22T00:48:10;24.90;;;15.40;;
8482;SDS011;4278;42.668;23.312;2022-10-22T00:50:39;24.57;;;14.13;;
8482;SDS011;4278;42.668;23.312;2022-10-22T00:53:07;23.53;;;14.67;;
8482;SDS011;4278;42.668;23.312;2022-10-22T00:55:35;23.03;;;14.40;;
8482;SDS011;4278;42.668;23.312;2022-10-22T00:58:02;27.53;;;14.87;;
8482;SDS011;4278;42.668;23.312;2022-10-22T01:00:29;27.47;;;14.27;;
8482;SDS011;4278;42.668;23.312;2022-10-22T01:02:55;25.50;;;13.83;;
8482;SDS011;4278;42.668;23.312;2022-10-22T01:05:24;23.07;;;14.10;;
8482;SDS011;4278;42.668;23.312;2022-10-22T01:07:51;24.17;;;13.27;;
8482;SDS011;4278;42.668;23.312;2022-10-22T01:10:26;22.23;;;13.30;;
8482;SDS011;4278;42.668;23.312;2022-10-22T01:12:58;23.50;;;13.50;;
8482;SDS011;4278;42.668;23.312;2022-10-22T01:15:28;21.30;;;13.57;;
8482;SDS011;4278;42.668;23.312;2022-10-22T01:18:00;19.87;;;12.60;;
8482;SDS011;4278;42.668;23.312;2022-10-22T01:20:34;23.60;;;12.53;;
8482;SDS011;4278;42.668;23.312;2022-10-22T01:23:02;24.00;;;12.63;;
8482;SDS011;4278;42.668;23.312;2022-10-22T01:25:30;20.47;;;12.17;;
8482;SDS011;4278;42.668;23.312;2022-10-22T01:28:01;24.10;;;13.67;;
8482;SDS011;4278;42.668;23.312;2022-10-22T01:30:31;22.57;;;13.27;;
8482;SDS011;4278;42.668;23.312;2022-10-22T01:33:00;20.17;;;12.70;;
8482;SDS011;4278;42.668;23.312;2022-10-22T01:35:30;21.43;;;13.00;;
8482;SDS011;4278;42.668;23.312;2022-10-22T01:37:58;19.07;;;12.23;;
8482;SDS011;4278;42.668;23.312;2022-10-22T01:40:26;18.83;;;12.43;;
8482;SDS011;4278;42.668;23.312;2022-10-22T01:42:54;20.57;;;13.23;;
8482;SDS011;4278;42.668;23.312;2022-10-22T01:45:21;23.07;;;12.17;;
8482;SDS011;4278;42.668;23.312;2022-10-22T01:47:51;21.07;;;12.53;;
8482;SDS011;4278;42.668;23.312;2022-10-22T01:50:28;22.73;;;13.30;;
8482;SDS011;4278;42.668;23.312;2022-10-22T01:53:02;22.33;;;12.53;;
8482;SDS011;4278;42.668;23.312;2022-10-22T01:55:34;20.60;;;12.63;;
8482;SDS011;4278;42.668;23.312;2022-10-22T01:58:06;24.00;;;13.00;;
8482;SDS011;4278;42.668;23.312;2022-10-22T02:00:37;22.37;;;13.67;;
8482;SDS011;4278;42.668;23.312;2022-10-22T02:03:08;20.87;;;12.80;;
8482;SDS011;4278;42.668;23.312;2022-10-22T02:05:38;26.40;;;14.47;;
8482;SDS011;4278;42.668;23.312;2022-10-22T02:08:07;23.63;;;14.13;;
8482;SDS011;4278;42.668;23.312;2022-10-22T02:10:34;22.37;;;13.90;;
8482;SDS011;4278;42.668;23.312;2022-10-22T02:13:02;25.40;;;13.70;;
8482;SDS011;4278;42.668;23.312;2022-10-22T02:15:30;23.17;;;14.60;;
8482;SDS011;4278;42.668;23.312;2022-10-22T02:17:58;20.87;;;12.60;;
8482;SDS011;4278;42.668;23.312;2022-10-22T02:20:27;21.33;;;12.80;;
8482;SDS011;4278;42.668;23.312;2022-10-22T02:22:54;21.20;;;12.63;;
8482;SDS011;4278;42.668;23.312;2022-10-22T02:25:21;20.20;;;12.50;;
8482;SDS011;4278;42.668;23.312;2022-10-22T02:27:50;24.90;;;13.10;;
8482;SDS011;4278;42.668;23.312;2022-10-22T02:30:21;24.73;;;13.07;;
8482;SDS011;4278;42.668;23.312;2022-10-22T02:32:49;24.90;;;12.90;;
8482;SDS011;4278;42.668;23.312;2022-10-22T02:35:18;20.17;;;12.67;;
8482;SDS011;4278;42.668;23.312;2022-10-22T02:37:47;20.13;;;12.50;;
8482;SDS011;4278;42.668;23.312;2022-10-22T02:40:14;20.60;;;13.17;;
8482;SDS011;4278;42.668;23.312;2022-10-22T02:42:41;25.13;;;14.57;;
8482;SDS011;4278;42.668;23.312;2022-10-22T02:45:09;24.97;;;14.17;;
8482;SDS011;4278;42.668;23.312;2022-10-22T02:47:35;24.83;;;13.87;;
8482;SDS011;4278;42.668;23.312;2022-10-22T02:50:02;21.33;;;13.03;;
8482;SDS011;4278;42.668;23.312;2022-10-22T02:52:28;26.57;;;14.13;;
8482;SDS011;4278;42.668;23.312;2022-10-22T02:54:56;24.33;;;14.70;;
8482;SDS011;4278;42.668;23.312;2022-10-22T02:57:23;23.47;;;13.33;;
8482;SDS011;4278;42.668;23.312;2022-10-22T02:59:49;22.83;;;13.33;;
8482;SDS011;4278;42.668;23.312;2022-10-22T03:02:16;22.37;;;14.00;;
8482;SDS011;4278;42.668;23.312;2022-10-22T03:04:42;19.97;;;13.30;;
8482;SDS011;4278;42.668;23.312;2022-10-22T03:07:09;22.93;;;12.83;;
8482;SDS011;4278;42.668;23.312;2022-10-22T03:09:35;23.33;;;14.83;;
8482;SDS011;4278;42.668;23.312;2022-10-22T03:12:03;21.30;;;12.73;;
8482;SDS011;4278;42.668;23.312;2022-10-22T03:14:30;24.37;;;13.73;;
8482;SDS011;4278;42.668;23.312;2022-10-22T03:16:56;23.70;;;14.20;;
8482;SDS011;4278;42.668;23.312;2022-10-22T03:19:23;25.77;;;14.17;;
8482;SDS011;4278;42.668;23.312;2022-10-22T03:21:51;23.30;;;14.13;;
8482;SDS011;4278;42.668;23.312;2022-10-22T03:24:19;21.90;;;12.93;;
8482;SDS011;4278;42.668;23.312;2022-10-22T03:26:47;28.07;;;12.77;;
8482;SDS011;4278;42.668;23.312;2022-10-22T03:29:16;21.97;;;13.60;;
8482;SDS011;4278;42.668;23.312;2022-10-22T03:31:42;21.57;;;12.17;;
8482;SDS011;4278;42.668;23.312;2022-10-22T03:34:09;25.73;;;13.53;;
8482;SDS011;4278;42.668;23.312;2022-10-22T03:36:37;22.77;;;13.80;;
8482;SDS011;4278;42.668;23.312;2022-10-22T03:39:04;23.00;;;13.90;;
8482;SDS011;4278;42.668;23.312;2022-10-22T03:41:31;26.60;;;15.13;;
8482;SDS011;4278;42.668;23.312;2022-10-22T03:43:58;25.30;;;15.17;;
8482;SDS011;4278;42.668;23.312;2022-10-22T03:46:27;26.27;;;14.07;;
8482;SDS011;4278;42.668;23.312;2022-10-22T03:48:53;24.47;;;13.60;;
8482;SDS011;4278;42.668;23.312;2022-10-22T03:51:20;27.50;;;14.00;;
8482;SDS011;4278;42.668;23.312;2022-10-22T03:53:46;24.27;;;13.90;;
8482;SDS011;4278;42.668;23.312;2022-10-22T03:56:13;25.77;;;14.53;;
8482;SDS011;4278;42.668;23.312;2022-10-22T03:58:39;25.40;;;14.80;;
8482;SDS011;4278;42.668;23.312;2022-10-22T04:01:07;20.87;;;13.33;;
8482;SDS011;4278;42.668;23.312;2022-10-22T04:03:35;22.33;;;13.53;;
8482;SDS011;4278;42.668;23.312;2022-10-22T04:06:02;23.23;;;13.97;;
8482;SDS011;4278;42.668;23.312;2022-10-22T04:08:28;25.07;;;13.83;;
8482;SDS011;4278;42.668;23.312;2022-10-22T04:10:55;26.77;;;14.63;;
8482;SDS011;4278;42.668;23.312;2022-10-22T04:13:21;21.70;;;13.47;;
8482;SDS011;4278;42.668;23.312;2022-10-22T04:15:48;25.90;;;15.17;;
8482;SDS011;4278;42.668;23.312;2022-10-22T04:18:16;32.83;;;15.27;;
8482;SDS011;4278;42.668;23.312;2022-10-22T04:20:44;26.90;;;15.77;;
8482;SDS011;4278;42.668;23.312;2022-10-22T04:23:10;25.27;;;13.70;;
8482;SDS011;4278;42.668;23.312;2022-10-22T04:25:37;26.70;;;15.60;;
8482;SDS011;4278;42.668;23.312;2022-10-22T04:28:04;25.17;;;14.67;;
8482;SDS011;4278;42.668;23.312;2022-10-22T04:30:31;25.50;;;14.27;;
8482;SDS011;4278;42.668;23.312;2022-10-22T04:32:57;27.13;;;15.07;;
8482;SDS011;4278;42.668;23.312;2022-10-22T04:35:24;24.17;;;14.37;;
8482;SDS011;4278;42.668;23.312;2022-10-22T04:37:52;24.03;;;13.97;;
8482;SDS011;4278;42.668;23.312;2022-10-22T04:40:19;26.63;;;15.13;;
8482;SDS011;4278;42.668;23.312;2022-10-22T04:42:46;29.77;;;16.17;;
8482;SDS011;4278;42.668;23.312;2022-10-22T04:45:12;27.00;;;14.73;;
8482;SDS011;4278;42.668;23.312;2022-10-22T04:47:39;22.73;;;13.97;;
8482;SDS011;4278;42.668;23.312;2022-10-22T04:50:06;23.57;;;14.73;;
8482;SDS011;4278;42.668;23.312;2022-10-22T04:52:33;26.67;;;14.83;;
8482;SDS011;4278;42.668;23.312;2022-10-22T04:55:01;26.10;;;15.43;;
8482;SDS011;4278;42.668;23.312;2022-10-22T04:57:28;23.47;;;13.90;;
8482;SDS011;4278;42.668;23.312;2022-10-22T04:59:54;24.87;;;14.73;;
8482;SDS011;4278;42.668;23.312;2022-10-22T05:02:21;28.37;;;14.67;;
8482;SDS011;4278;42.668;23.312;2022-10-22T05:04:47;26.50;;;15.03;;
8482;SDS011;4278;42.668;23.312;2022-10-22T05:07:14;25.20;;;14.53;;
8482;SDS011;4278;42.668;23.312;2022-10-22T05:09:40;25.63;;;14.97;;
8482;SDS011;4278;42.668;23.312;2022-10-22T05:12:08;26.40;;;15.20;;
8482;SDS011;4278;42.668;23.312;2022-10-22T05:14:35;23.97;;;14.83;;
8482;SDS011;4278;42.668;23.312;2022-10-22T05:17:01;28.37;;;16.73;;
8482;SDS011;4278;42.668;23.312;2022-10-22T05:19:28;28.50;;;16.20;;
8482;SDS011;4278;42.668;23.312;2022-10-22T05:21:58;27.87;;;17.17;;
8482;SDS011;4278;42.668;23.312;2022-10-22T05:24:27;28.50;;;17.50;;
8482;SDS011;4278;42.668;23.312;2022-10-22T05:26:54;26.53;;;16.33;;
8482;SDS011;4278;42.668;23.312;2022-10-22T05:29:22;31.17;;;16.90;;
8482;SDS011;4278;42.668;23.312;2022-10-22T05:31:49;26.20;;;15.90;;
8482;SDS011;4278;42.668;23.312;2022-10-22T05:34:16;31.63;;;17.13;;
8482;SDS011;4278;42.668;23.312;2022-10-22T05:36:42;31.40;;;17.40;;
8482;SDS011;4278;42.668;23.312;2022-10-22T05:39:09;30.70;;;17.37;;
8482;SDS011;4278;42.668;23.312;2022-10-22T05:41:36;31.63;;;17.47;;
8482;SDS011;4278;42.668;23.312;2022-10-22T05:44:02;32.10;;;16.83;;
8482;SDS011;4278;42.668;23.312;2022-10-22T05:46:32;36.13;;;18.27;;
8482;SDS011;4278;42.668;23.312;2022-10-22T05:48:59;27.57;;;15.93;;
8482;SDS011;4278;42.668;23.312;2022-10-22T05:51:26;30.60;;;16.77;;
8482;SDS011;4278;42.668;23.312;2022-10-22T05:53:54;30.77;;;17.83;;
8482;SDS011;4278;42.668;23.312;2022-10-22T05:56:20;28.63;;;16.63;;
8482;SDS011;4278;42.668;23.312;2022-10-22T05:58:47;28.77;;;17.80;;
8482;SDS011;4278;42.668;23.312;2022-10-22T06:01:15;26.67;;;16.17;;
8482;SDS011;4278;42.668;23.312;2022-10-22T06:03:43;34.47;;;18.40;;
8482;SDS011;4278;42.668;23.312;2022-10-22T06:06:13;29.33;;;16.83;;
8482;SDS011;4278;42.668;23.312;2022-10-22T06:08:40;27.50;;;16.97;;
8482;SDS011;4278;42.668;23.312;2022-10-22T06:11:07;33.47;;;17.40;;
8482;SDS011;4278;42.668;23.312;2022-10-22T06:13:34;29.73;;;16.17;;
8482;SDS011;4278;42.668;23.312;2022-10-22T06:16:00;32.90;;;16.80;;
8482;SDS011;4278;42.668;23.312;2022-10-22T06:18:26;28.17;;;15.67;;
8482;SDS011;4278;42.668;23.312;2022-10-22T06:20:54;27.87;;;15.67;;
8482;SDS011;4278;42.668;23.312;2022-10-22T06:23:21;30.80;;;17.17;;
8482;SDS011;4278;42.668;23.312;2022-10-22T06:25:54;30.97;;;16.70;;
8482;SDS011;4278;42.668;23.312;2022-10-22T06:28:21;26.20;;;16.23;;
8482;SDS011;4278;42.668;23.312;2022-10-22T06:30:47;32.67;;;17.00;;
8482;SDS011;4278;42.668;23.312;2022-10-22T06:33:14;26.23;;;16.53;;
8482;SDS011;4278;42.668;23.312;2022-10-22T06:35:40;29.77;;;16.23;;
8482;SDS011;4278;42.668;23.312;2022-10-22T06:38:16;31.03;;;17.77;;
8482;SDS011;4278;42.668;23.312;2022-10-22T06:40:43;28.83;;;17.53;;
8482;SDS011;4278;42.668;23.312;2022-10-22T06:43:09;29.77;;;19.05;;
8482;SDS011;4278;42.668;23.312;2022-10-22T06:45:36;32.33;;;18.00;;
8482;SDS011;4278;42.668;23.312;2022-10-22T06:48:03;32.47;;;18.47;;
8482;SDS011;4278;42.668;23.312;2022-10-22T06:50:29;31.63;;;18.87;;
8482;SDS011;4278;42.668;23.312;2022-10-22T06:52:56;36.23;;;19.57;;
8482;SDS011;4278;42.668;23.312;2022-10-22T06:55:24;31.50;;;19.17;;
8482;SDS011;4278;42.668;23.312;2022-10-22T06:57:51;34.97;;;20.13;;
8482;SDS011;4278;42.668;23.312;2022-10-22T07:00:17;30.43;;;17.63;;
8482;SDS011;4278;42.668;23.312;2022-10-22T07:02:49;36.70;;;21.40;;
8482;SDS011;4278;42.668;23.312;2022-10-22T07:05:16;35.10;;;20.00;;
8482;SDS011;4278;42.668;23.312;2022-10-22T07:07:43;29.90;;;18.30;;
8482;SDS011;4278;42.668;23.312;2022-10-22T07:10:09;31.30;;;19.33;;
8482;SDS011;4278;42.668;23.312;2022-10-22T07:12:37;34.13;;;20.50;;
8482;SDS011;4278;42.668;23.312;2022-10-22T07:15:04;30.57;;;19.37;;
8482;SDS011;4278;42.668;23.312;2022-10-22T07:17:31;29.70;;;18.87;;
8482;SDS011;4278;42.668;23.312;2022-10-22T07:19:58;30.33;;;19.27;;
8482;SDS011;4278;42.668;23.312;2022-10-22T07:22:24;28.70;;;19.10;;
8482;SDS011;4278;42.668;23.312;2022-10-22T07:24:51;32.63;;;20.47;;
8482;SDS011;4278;42.668;23.312;2022-10-22T07:27:19;28.93;;;17.27;;
8482;SDS011;4278;42.668;23.312;2022-10-22T07:29:47;32.40;;;17.83;;
8482;SDS011;4278;42.668;23.312;2022-10-22T07:32:13;31.87;;;18.00;;
8482;SDS011;4278;42.668;23.312;2022-10-22T07:34:40;28.57;;;18.03;;
8482;SDS011;4278;42.668;23.312;2022-10-22T07:37:06;27.23;;;16.20;;
8482;SDS011;4278;42.668;23.312;2022-10-22T07:39:33;27.70;;;15.73;;
8482;SDS011;4278;42.668;23.312;2022-10-22T07:42:00;23.13;;;15.30;;
8482;SDS011;4278;42.668;23.312;2022-10-22T07:44:29;28.63;;;16.47;;
8482;SDS011;4278;42.668;23.312;2022-10-22T07:46:57;26.03;;;16.80;;
8482;SDS011;4278;42.668;23.312;2022-10-22T07:49:24;27.93;;;16.03;;
8482;SDS011;4278;42.668;23.312;2022-10-22T07:51:50;26.13;;;14.67;;
8482;SDS011;4278;42.668;23.312;2022-10-22T07:54:17;27.17;;;15.70;;
8482;SDS011;4278;42.668;23.312;2022-10-22T07:56:47;28.20;;;14.60;;
8482;SDS011;4278;42.668;23.312;2022-10-22T07:59:15;27.10;;;15.37;;
8482;SDS011;4278;42.668;23.312;2022-10-22T08:01:45;24.73;;;16.10;;
8482;SDS011;4278;42.668;23.312;2022-10-22T08:04:13;26.23;;;15.70;;
8482;SDS011;4278;42.668;23.312;2022-10-22T08:06:41;26.70;;;16.13;;
8482;SDS011;4278;42.668;23.312;2022-10-22T08:09:09;28.77;;;17.93;;
8482;SDS011;4278;42.668;23.312;2022-10-22T08:11:38;24.57;;;16.17;;
8482;SDS011;4278;42.668;23.312;2022-10-22T08:14:08;31.57;;;17.33;;
8482;SDS011;4278;42.668;23.312;2022-10-22T08:16:35;28.47;;;17.87;;
8482;SDS011;4278;42.668;23.312;2022-10-22T08:19:03;28.50;;;17.57;;
8482;SDS011;4278;42.668;23.312;2022-10-22T08:21:38;29.50;;;17.73;;
8482;SDS011;4278;42.668;23.312;2022-10-22T08:24:08;27.70;;;17.47;;
8482;SDS011;4278;42.668;23.312;2022-10-22T08:26:38;29.03;;;17.23;;
8482;SDS011;4278;42.668;23.312;2022-10-22T08:29:07;30.30;;;17.37;;
8482;SDS011;4278;42.668;23.312;2022-10-22T08:31:43;27.47;;;15.87;;
8482;SDS011;4278;42.668;23.312;2022-10-22T08:34:15;31.00;;;18.27;;
8482;SDS011;4278;42.668;23.312;2022-10-22T08:36:51;28.60;;;17.20;;
8482;SDS011;4278;42.668;23.312;2022-10-22T08:39:20;29.70;;;16.90;;
8482;SDS011;4278;42.668;23.312;2022-10-22T08:42:03;28.23;;;16.40;;
8482;SDS011;4278;42.668;23.312;2022-10-22T08:44:54;27.43;;;16.33;;
8482;SDS011;4278;42.668;23.312;2022-10-22T08:47:32;24.73;;;16.17;;
8482;SDS011;4278;42.668;23.312;2022-10-22T08:50:04;25.10;;;15.17;;
8482;SDS011;4278;42.668;23.312;2022-10-22T08:52:35;23.20;;;14.37;;
8482;SDS011;4278;42.668;23.312;2022-10-22T08:55:02;27.03;;;16.17;;
8482;SDS011;4278;42.668;23.312;2022-10-22T08:57:35;25.67;;;15.33;;
8482;SDS011;4278;42.668;23.312;2022-10-22T09:00:04;21.53;;;14.57;;
8482;SDS011;4278;42.668;23.312;2022-10-22T09:02:34;23.97;;;15.37;;
8482;SDS011;4278;42.668;23.312;2022-10-22T09:05:05;22.70;;;16.13;;
8482;SDS011;4278;42.668;23.312;2022-10-22T09:07:41;27.37;;;16.17;;
8482;SDS011;4278;42.668;23.312;2022-10-22T09:10:08;30.37;;;18.13;;
8482;SDS011;4278;42.668;23.312;2022-10-22T09:12:38;26.27;;;16.13;;
8482;SDS011;4278;42.668;23.312;2022-10-22T09:15:08;28.30;;;17.23;;
8482;SDS011;4278;42.668;23.312;2022-10-22T09:17:40;28.73;;;17.23;;
8482;SDS011;4278;42.668;23.312;2022-10-22T09:20:12;33.43;;;17.87;;
8482;SDS011;4278;42.668;23.312;2022-10-22T09:22:43;31.53;;;18.57;;
8482;SDS011;4278;42.668;23.312;2022-10-22T09:25:15;31.33;;;19.00;;
8482;SDS011;4278;42.668;23.312;2022-10-22T09:27:44;30.57;;;19.43;;
8482;SDS011;4278;42.668;23.312;2022-10-22T09:30:15;36.77;;;20.00;;
8482;SDS011;4278;42.668;23.312;2022-10-22T09:32:42;32.60;;;19.60;;
8482;SDS011;4278;42.668;23.312;2022-10-22T09:35:09;38.90;;;19.57;;
8482;SDS011;4278;42.668;23.312;2022-10-22T09:37:43;31.50;;;19.70;;
8482;SDS011;4278;42.668;23.312;2022-10-22T09:40:14;32.20;;;19.30;;
8482;SDS011;4278;42.668;23.312;2022-10-22T09:42:40;36.27;;;19.13;;
8482;SDS011;4278;42.668;23.312;2022-10-22T09:45:13;31.57;;;18.70;;
8482;SDS011;4278;42.668;23.312;2022-10-22T09:47:40;31.57;;;18.10;;
8482;SDS011;4278;42.668;23.312;2022-10-22T09:50:11;29.50;;;16.33;;
8482;SDS011;4278;42.668;23.312;2022-10-22T09:52:43;25.83;;;16.50;;
8482;SDS011;4278;42.668;23.312;2022-10-22T09:55:11;29.03;;;17.30;;
8482;SDS011;4278;42.668;23.312;2022-10-22T09:57:40;30.37;;;17.90;;
8482;SDS011;4278;42.668;23.312;2022-10-22T10:00:07;30.77;;;16.87;;
8482;SDS011;4278;42.668;23.312;2022-10-22T10:02:34;30.33;;;19.57;;
8482;SDS011;4278;42.668;23.312;2022-10-22T10:05:05;31.03;;;16.20;;
8482;SDS011;4278;42.668;23.312;2022-10-22T10:07:32;27.90;;;17.87;;
8482;SDS011;4278;42.668;23.312;2022-10-22T10:09:59;26.63;;;16.37;;
8482;SDS011;4278;42.668;23.312;2022-10-22T10:12:29;26.03;;;16.33;;
8482;SDS011;4278;42.668;23.312;2022-10-22T10:15:02;24.87;;;16.57;;
8482;SDS011;4278;42.668;23.312;2022-10-22T10:17:32;24.77;;;16.03;;
8482;SDS011;4278;42.668;23.312;2022-10-22T10:20:02;25.63;;;16.47;;
8482;SDS011;4278;42.668;23.312;2022-10-22T10:22:38;25.03;;;16.43;;
8482;SDS011;4278;42.668;23.312;2022-10-22T10:25:25;28.20;;;15.73;;
8482;SDS011;4278;42.668;23.312;2022-10-22T10:27:54;23.45;;;14.65;;
8482;SDS011;4278;42.668;23.312;2022-10-22T10:30:23;28.38;;;15.63;;
8482;SDS011;4278;42.668;23.312;2022-10-22T10:33:02;20.70;;;14.80;;
8482;SDS011;4278;42.668;23.312;2022-10-22T10:35:34;20.50;;;13.88;;
8482;SDS011;4278;42.668;23.312;2022-10-22T10:38:07;20.90;;;14.80;;
8482;SDS011;4278;42.668;23.312;2022-10-22T10:40:39;22.05;;;14.40;;
8482;SDS011;4278;42.668;23.312;2022-10-22T10:43:08;23.70;;;14.98;;
8482;SDS011;4278;42.668;23.312;2022-10-22T10:45:39;23.55;;;15.27;;
8482;SDS011;4278;42.668;23.312;2022-10-22T10:50:55;20.35;;;14.52;;
8482;SDS011;4278;42.668;23.312;2022-10-22T10:53:26;23.10;;;14.85;;
8482;SDS011;4278;42.668;23.312;2022-10-22T10:55:57;25.33;;;15.05;;
8482;SDS011;4278;42.668;23.312;2022-10-22T10:58:27;18.75;;;13.93;;
8482;SDS011;4278;42.668;23.312;2022-10-22T11:00:58;20.65;;;14.25;;
8482;SDS011;4278;42.668;23.312;2022-10-22T11:06:12;18.35;;;13.32;;
8482;SDS011;4278;42.668;23.312;2022-10-22T11:08:41;20.83;;;13.30;;
8482;SDS011;4278;42.668;23.312;2022-10-22T11:11:10;16.80;;;12.65;;
8482;SDS011;4278;42.668;23.312;2022-10-22T11:13:38;20.08;;;13.32;;
8482;SDS011;4278;42.668;23.312;2022-10-22T11:16:08;23.13;;;12.93;;
8482;SDS011;4278;42.668;23.312;2022-10-22T11:18:37;16.83;;;12.50;;
8482;SDS011;4278;42.668;23.312;2022-10-22T11:21:08;16.40;;;12.40;;
8482;SDS011;4278;42.668;23.312;2022-10-22T11:23:36;22.65;;;12.63;;
8482;SDS011;4278;42.668;23.312;2022-10-22T11:26:05;15.57;;;11.88;;
8482;SDS011;4278;42.668;23.312;2022-10-22T11:28:36;17.92;;;11.82;;
8482;SDS011;4278;42.668;23.312;2022-10-22T11:31:07;17.83;;;12.63;;
8482;SDS011;4278;42.668;23.312;2022-10-22T11:33:37;17.42;;;11.32;;
8482;SDS011;4278;42.668;23.312;2022-10-22T11:36:05;17.73;;;11.35;;
8482;SDS011;4278;42.668;23.312;2022-10-22T11:38:32;19.63;;;11.43;;
8482;SDS011;4278;42.668;23.312;2022-10-22T11:41:00;16.40;;;11.13;;
8482;SDS011;4278;42.668;23.312;2022-10-22T11:43:28;14.70;;;11.70;;
8482;SDS011;4278;42.668;23.312;2022-10-22T11:45:57;19.25;;;11.57;;
8482;SDS011;4278;42.668;23.312;2022-10-22T11:48:26;14.60;;;11.13;;
8482;SDS011;4278;42.668;23.312;2022-10-22T11:50:55;15.23;;;11.25;;
8482;SDS011;4278;42.668;23.312;2022-10-22T11:53:29;17.08;;;11.40;;
8482;SDS011;4278;42.668;23.312;2022-10-22T11:55:56;16.95;;;11.50;;
8482;SDS011;4278;42.668;23.312;2022-10-22T11:58:31;15.18;;;11.07;;
8482;SDS011;4278;42.668;23.312;2022-10-22T12:01:15;15.38;;;10.73;;
8482;SDS011;4278;42.668;23.312;2022-10-22T12:03:46;12.60;;;10.55;;
8482;SDS011;4278;42.668;23.312;2022-10-22T12:06:22;17.58;;;11.52;;
8482;SDS011;4278;42.668;23.312;2022-10-22T12:08:58;13.23;;;10.27;;
8482;SDS011;4278;42.668;23.312;2022-10-22T12:11:27;20.92;;;15.82;;
8482;SDS011;4278;42.668;23.312;2022-10-22T12:14:01;18.27;;;11.45;;
8482;SDS011;4278;42.668;23.312;2022-10-22T12:16:28;21.23;;;12.23;;
8482;SDS011;4278;42.668;23.312;2022-10-22T12:19:00;18.98;;;11.90;;
8482;SDS011;4278;42.668;23.312;2022-10-22T12:21:29;13.85;;;9.50;;
8482;SDS011;4278;42.668;23.312;2022-10-22T12:23:57;16.17;;;9.70;;
8482;SDS011;4278;42.668;23.312;2022-10-22T12:26:25;14.77;;;9.43;;
8482;SDS011;4278;42.668;23.312;2022-10-22T12:28:55;20.33;;;10.25;;
8482;SDS011;4278;42.668;23.312;2022-10-22T12:31:22;17.30;;;9.77;;
8482;SDS011;4278;42.668;23.312;2022-10-22T12:33:54;15.45;;;11.20;;
8482;SDS011;4278;42.668;23.312;2022-10-22T12:36:20;18.42;;;10.43;;
8482;SDS011;4278;42.668;23.312;2022-10-22T12:38:48;20.63;;;11.15;;
8482;SDS011;4278;42.668;23.312;2022-10-22T12:41:15;20.73;;;9.98;;
8482;SDS011;4278;42.668;23.312;2022-10-22T12:43:42;19.35;;;9.52;;
8482;SDS011;4278;42.668;23.312;2022-10-22T12:46:10;15.32;;;8.95;;
8482;SDS011;4278;42.668;23.312;2022-10-22T12:48:39;13.18;;;9.63;;
8482;SDS011;4278;42.668;23.312;2022-10-22T12:51:06;14.50;;;9.18;;
8482;SDS011;4278;42.668;23.312;2022-10-22T12:53:33;14.68;;;8.60;;
8482;SDS011;4278;42.668;23.312;2022-10-22T12:56:03;11.10;;;8.73;;
8482;SDS011;4278;42.668;23.312;2022-10-22T12:58:32;17.10;;;8.75;;
8482;SDS011;4278;42.668;23.312;2022-10-22T13:00:59;13.85;;;9.57;;
8482;SDS011;4278;42.668;23.312;2022-10-22T13:03:28;16.02;;;9.18;;
8482;SDS011;4278;42.668;23.312;2022-10-22T13:05:54;14.80;;;9.73;;
8482;SDS011;4278;42.668;23.312;2022-10-22T13:08:21;13.85;;;9.13;;
8482;SDS011;4278;42.668;23.312;2022-10-22T13:10:48;12.98;;;9.02;;
8482;SDS011;4278;42.668;23.312;2022-10-22T13:13:29;18.35;;;10.27;;
8482;SDS011;4278;42.668;23.312;2022-10-22T13:15:56;20.23;;;9.68;;
8482;SDS011;4278;42.668;23.312;2022-10-22T13:18:37;12.38;;;8.85;;
8482;SDS011;4278;42.668;23.312;2022-10-22T13:21:04;14.13;;;8.85;;
8482;SDS011;4278;42.668;23.312;2022-10-22T13:23:31;15.10;;;8.73;;
8482;SDS011;4278;42.668;23.312;2022-10-22T13:25:58;12.82;;;9.32;;
8482;SDS011;4278;42.668;23.312;2022-10-22T13:28:25;17.55;;;9.27;;
8482;SDS011;4278;42.668;23.312;2022-10-22T13:30:54;13.93;;;8.85;;
8482;SDS011;4278;42.668;23.312;2022-10-22T13:33:21;14.38;;;8.82;;
8482;SDS011;4278;42.668;23.312;2022-10-22T13:35:50;12.38;;;8.18;;
8482;SDS011;4278;42.668;23.312;2022-10-22T13:38:17;13.00;;;8.02;;
8482;SDS011;4278;42.668;23.312;2022-10-22T13:40:44;14.98;;;8.98;;
8482;SDS011;4278;42.668;23.312;2022-10-22T13:43:11;13.20;;;8.10;;
8482;SDS011;4278;42.668;23.312;2022-10-22T13:45:38;14.85;;;8.25;;
8482;SDS011;4278;42.668;23.312;2022-10-22T13:48:07;13.68;;;8.52;;
8482;SDS011;4278;42.668;23.312;2022-10-22T13:50:35;15.52;;;9.00;;
8482;SDS011;4278;42.668;23.312;2022-10-22T13:53:01;12.82;;;8.27;;
8482;SDS011;4278;42.668;23.312;2022-10-22T13:55:29;13.60;;;8.65;;
8482;SDS011;4278;42.668;23.312;2022-10-22T13:57:56;16.95;;;8.90;;
8482;SDS011;4278;42.668;23.312;2022-10-22T14:00:23;10.75;;;7.30;;
8482;SDS011;4278;42.668;23.312;2022-10-22T14:02:51;14.35;;;7.50;;
8482;SDS011;4278;42.668;23.312;2022-10-22T14:05:19;10.98;;;7.88;;
8482;SDS011;4278;42.668;23.312;2022-10-22T14:07:46;15.55;;;8.27;;
8482;SDS011;4278;42.668;23.312;2022-10-22T14:10:14;13.90;;;8.80;;
8482;SDS011;4278;42.668;23.312;2022-10-22T14:12:40;10.75;;;8.15;;
8482;SDS011;4278;42.668;23.312;2022-10-22T14:15:08;9.77;;;7.57;;
8482;SDS011;4278;42.668;23.312;2022-10-22T14:17:34;12.95;;;8.23;;
8482;SDS011;4278;42.668;23.312;2022-10-22T14:20:01;15.82;;;8.25;;
8482;SDS011;4278;42.668;23.312;2022-10-22T14:22:29;12.82;;;8.75;;
8482;SDS011;4278;42.668;23.312;2022-10-22T14:24:55;15.23;;;8.07;;
8482;SDS011;4278;42.668;23.312;2022-10-22T14:27:22;19.05;;;8.90;;
8482;SDS011;4278;42.668;23.312;2022-10-22T14:29:48;14.07;;;8.60;;
8482;SDS011;4278;42.668;23.312;2022-10-22T14:32:15;13.10;;;9.02;;
8482;SDS011;4278;42.668;23.312;2022-10-22T14:34:44;13.48;;;8.77;;
8482;SDS011;4278;42.668;23.312;2022-10-22T14:37:14;13.00;;;9.32;;
8482;SDS011;4278;42.668;23.312;2022-10-22T14:39:43;13.20;;;8.93;;
8482;SDS011;4278;42.668;23.312;2022-10-22T14:42:11;12.57;;;8.32;;
8482;SDS011;4278;42.668;23.312;2022-10-22T14:44:37;16.52;;;10.35;;
8482;SDS011;4278;42.668;23.312;2022-10-22T14:47:04;16.98;;;10.98;;
8482;SDS011;4278;42.668;23.312;2022-10-22T14:49:30;18.13;;;9.70;;